sensor_id;sensor_type;location;lat;lon;timestamp;P1;durP1;ratioP1;P2;durP2;ratioP2
4323;SDS011;2175;51.018;6.994;2023-02-28T00:00:27;6.28;;;3.60;;
4323;SDS011;2175;51.018;6.994;2023-02-28T00:02:53;7.53;;;4.00;;
4323;SDS011;2175;51.018;6.994;2023-02-28T00:05:21;8.30;;;4.00;;
4323;SDS011;2175;51.018;6.994;2023-02-28T00:07:49;5.90;;;3.70;;
4323;SDS011;2175;51.018;6.994;2023-02-28T00:10:17;7.40;;;4.13;;
4323;SDS011;2175;51.018;6.994;2023-02-28T00:12:48;6.05;;;3.45;;
4323;SDS011;2175;51.018;6.994;2023-02-28T00:15:17;7.25;;;3.65;;
4323;SDS011;2175;51.018;6.994;2023-02-28T00:17:43;7.75;;;3.80;;
4323;SDS011;2175;51.018;6.994;2023-02-28T00:20:09;9.33;;;4.27;;
4323;SDS011;2175;51.018;6.994;2023-02-28T00:22:40;7.65;;;3.75;;
4323;SDS011;2175;51.018;6.994;2023-02-28T00:25:12;5.93;;;3.80;;
4323;SDS011;2175;51.018;6.994;2023-02-28T00:27:39;8.30;;;3.90;;
4323;SDS011;2175;51.018;6.994;2023-02-28T00:30:06;6.18;;;4.00;;
4323;SDS011;2175;51.018;6.994;2023-02-28T00:32:33;5.45;;;3.35;;
4323;SDS011;2175;51.018;6.994;2023-02-28T00:35:00;5.15;;;3.30;;
4323;SDS011;2175;51.018;6.994;2023-02-28T00:37:27;6.95;;;4.18;;
4323;SDS011;2175;51.018;6.994;2023-02-28T00:39:52;4.25;;;3.30;;
4323;SDS011;2175;51.018;6.994;2023-02-28T00:42:18;7.20;;;3.43;;
4323;SDS011;2175;51.018;6.994;2023-02-28T00:44:44;7.57;;;3.60;;
4323;SDS011;2175;51.018;6.994;2023-02-28T00:47:09;6.10;;;3.60;;
4323;SDS011;2175;51.018;6.994;2023-02-28T00:49:35;6.50;;;3.50;;
4323;SDS011;2175;51.018;6.994;2023-02-28T00:52:00;4.50;;;3.30;;
4323;SDS011;2175;51.018;6.994;2023-02-28T00:54:26;5.17;;;2.93;;
4323;SDS011;2175;51.018;6.994;2023-02-28T00:56:52;7.97;;;3.17;;
4323;SDS011;2175;51.018;6.994;2023-02-28T00:59:18;5.60;;;3.23;;
4323;SDS011;2175;51.018;6.994;2023-02-28T01:01:44;5.80;;;3.50;;
4323;SDS011;2175;51.018;6.994;2023-02-28T01:04:11;5.68;;;3.35;;
4323;SDS011;2175;51.018;6.994;2023-02-28T01:06:37;7.90;;;3.35;;
4323;SDS011;2175;51.018;6.994;2023-02-28T01:09:04;6.60;;;3.67;;
4323;SDS011;2175;51.018;6.994;2023-02-28T01:11:30;5.45;;;3.45;;
4323;SDS011;2175;51.018;6.994;2023-02-28T01:13:57;6.93;;;3.45;;
4323;SDS011;2175;51.018;6.994;2023-02-28T01:16:22;6.10;;;4.00;;
4323;SDS011;2175;51.018;6.994;2023-02-28T01:18:48;6.67;;;3.63;;
4323;SDS011;2175;51.018;6.994;2023-02-28T01:21:18;8.40;;;3.70;;
4323;SDS011;2175;51.018;6.994;2023-02-28T01:23:45;6.68;;;3.60;;
4323;SDS011;2175;51.018;6.994;2023-02-28T01:26:15;6.82;;;3.20;;
4323;SDS011;2175;51.018;6.994;2023-02-28T01:28:42;7.60;;;3.38;;
4323;SDS011;2175;51.018;6.994;2023-02-28T01:31:08;9.10;;;3.50;;
4323;SDS011;2175;51.018;6.994;2023-02-28T01:33:34;6.68;;;3.78;;
4323;SDS011;2175;51.018;6.994;2023-02-28T01:36:08;7.55;;;3.55;;
4323;SDS011;2175;51.018;6.994;2023-02-28T01:38:36;6.47;;;3.22;;
4323;SDS011;2175;51.018;6.994;2023-02-28T01:41:02;6.40;;;3.20;;
4323;SDS011;2175;51.018;6.994;2023-02-28T01:43:30;6.30;;;3.20;;
4323;SDS011;2175;51.018;6.994;2023-02-28T01:46:16;6.50;;;3.40;;
4323;SDS011;2175;51.018;6.994;2023-02-28T01:48:49;6.23;;;3.20;;
4323;SDS011;2175;51.018;6.994;2023-02-28T01:51:24;11.75;;;3.55;;
4323;SDS011;2175;51.018;6.994;2023-02-28T01:54:03;5.35;;;3.08;;
4323;SDS011;2175;51.018;6.994;2023-02-28T01:56:38;6.30;;;3.80;;
4323;SDS011;2175;51.018;6.994;2023-02-28T01:59:29;9.25;;;3.90;;
4323;SDS011;2175;51.018;6.994;2023-02-28T02:02:04;4.60;;;3.20;;
4323;SDS011;2175;51.018;6.994;2023-02-28T02:04:35;6.53;;;3.53;;
4323;SDS011;2175;51.018;6.994;2023-02-28T02:07:06;8.10;;;3.60;;
4323;SDS011;2175;51.018;6.994;2023-02-28T02:09:32;8.10;;;4.03;;
4323;SDS011;2175;51.018;6.994;2023-02-28T02:11:58;5.53;;;3.37;;
4323;SDS011;2175;51.018;6.994;2023-02-28T02:14:35;3.75;;;3.28;;
4323;SDS011;2175;51.018;6.994;2023-02-28T02:23:03;8.85;;;2.90;;
4323;SDS011;2175;51.018;6.994;2023-02-28T02:28:45;6.70;;;3.38;;
4323;SDS011;2175;51.018;6.994;2023-02-28T02:34:45;3.95;;;3.00;;
4323;SDS011;2175;51.018;6.994;2023-02-28T02:37:21;5.55;;;3.08;;
4323;SDS011;2175;51.018;6.994;2023-02-28T02:42:47;6.47;;;3.00;;
4323;SDS011;2175;51.018;6.994;2023-02-28T02:45:25;5.90;;;3.30;;
4323;SDS011;2175;51.018;6.994;2023-02-28T02:48:08;5.57;;;3.58;;
4323;SDS011;2175;51.018;6.994;2023-02-28T02:50:49;7.47;;;3.13;;
4323;SDS011;2175;51.018;6.994;2023-02-28T02:53:18;8.23;;;3.45;;
4323;SDS011;2175;51.018;6.994;2023-02-28T02:55:49;7.38;;;3.70;;
4323;SDS011;2175;51.018;6.994;2023-02-28T02:58:20;5.57;;;3.47;;
4323;SDS011;2175;51.018;6.994;2023-02-28T03:00:51;6.20;;;3.67;;
4323;SDS011;2175;51.018;6.994;2023-02-28T03:03:20;5.13;;;3.25;;
4323;SDS011;2175;51.018;6.994;2023-02-28T03:05:54;6.18;;;3.25;;
4323;SDS011;2175;51.018;6.994;2023-02-28T03:08:21;4.28;;;3.00;;
4323;SDS011;2175;51.018;6.994;2023-02-28T03:10:57;4.63;;;2.60;;
4323;SDS011;2175;51.018;6.994;2023-02-28T03:21:04;5.53;;;3.53;;
4323;SDS011;2175;51.018;6.994;2023-02-28T03:26:19;6.35;;;3.40;;
4323;SDS011;2175;51.018;6.994;2023-02-28T03:28:57;5.75;;;3.30;;
4323;SDS011;2175;51.018;6.994;2023-02-28T03:31:41;6.15;;;3.63;;
4323;SDS011;2175;51.018;6.994;2023-02-28T03:34:29;6.82;;;3.58;;
4323;SDS011;2175;51.018;6.994;2023-02-28T03:37:03;6.18;;;3.58;;
4323;SDS011;2175;51.018;6.994;2023-02-28T03:39:42;4.80;;;3.15;;
4323;SDS011;2175;51.018;6.994;2023-02-28T03:42:18;6.13;;;3.20;;
4323;SDS011;2175;51.018;6.994;2023-02-28T03:44:51;4.82;;;3.25;;
4323;SDS011;2175;51.018;6.994;2023-02-28T03:52:18;7.38;;;3.72;;
4323;SDS011;2175;51.018;6.994;2023-02-28T03:54:51;5.13;;;3.85;;
4323;SDS011;2175;51.018;6.994;2023-02-28T04:00:20;6.53;;;3.80;;
4323;SDS011;2175;51.018;6.994;2023-02-28T04:02:53;5.90;;;4.15;;
4323;SDS011;2175;51.018;6.994;2023-02-28T04:05:20;7.07;;;4.40;;
4323;SDS011;2175;51.018;6.994;2023-02-28T04:07:47;6.45;;;3.63;;
4323;SDS011;2175;51.018;6.994;2023-02-28T04:10:13;7.53;;;4.22;;
4323;SDS011;2175;51.018;6.994;2023-02-28T04:12:40;7.65;;;4.15;;
4323;SDS011;2175;51.018;6.994;2023-02-28T04:15:05;7.80;;;4.20;;
4323;SDS011;2175;51.018;6.994;2023-02-28T04:17:32;12.20;;;4.50;;
4323;SDS011;2175;51.018;6.994;2023-02-28T04:19:57;8.63;;;4.20;;
4323;SDS011;2175;51.018;6.994;2023-02-28T04:22:23;8.17;;;3.73;;
4323;SDS011;2175;51.018;6.994;2023-02-28T04:24:51;8.98;;;4.07;;
4323;SDS011;2175;51.018;6.994;2023-02-28T04:27:19;5.85;;;3.47;;
4323;SDS011;2175;51.018;6.994;2023-02-28T04:29:45;5.25;;;3.47;;
4323;SDS011;2175;51.018;6.994;2023-02-28T04:32:11;9.00;;;4.10;;
4323;SDS011;2175;51.018;6.994;2023-02-28T04:34:37;5.50;;;3.60;;
4323;SDS011;2175;51.018;6.994;2023-02-28T04:37:03;6.82;;;4.10;;
4323;SDS011;2175;51.018;6.994;2023-02-28T04:39:30;7.43;;;3.38;;
4323;SDS011;2175;51.018;6.994;2023-02-28T04:41:55;7.73;;;4.00;;
4323;SDS011;2175;51.018;6.994;2023-02-28T04:44:21;4.80;;;3.80;;
4323;SDS011;2175;51.018;6.994;2023-02-28T04:46:47;5.60;;;3.45;;
4323;SDS011;2175;51.018;6.994;2023-02-28T04:49:13;7.93;;;3.85;;
4323;SDS011;2175;51.018;6.994;2023-02-28T04:51:40;4.70;;;3.67;;
4323;SDS011;2175;51.018;6.994;2023-02-28T04:54:06;7.20;;;3.45;;
4323;SDS011;2175;51.018;6.994;2023-02-28T04:56:32;7.40;;;3.60;;
4323;SDS011;2175;51.018;6.994;2023-02-28T05:01:29;5.97;;;3.67;;
4323;SDS011;2175;51.018;6.994;2023-02-28T05:03:56;7.63;;;3.67;;
4323;SDS011;2175;51.018;6.994;2023-02-28T05:06:24;7.22;;;3.60;;
4323;SDS011;2175;51.018;6.994;2023-02-28T05:08:51;6.65;;;3.58;;
4323;SDS011;2175;51.018;6.994;2023-02-28T05:11:31;7.47;;;3.47;;
4323;SDS011;2175;51.018;6.994;2023-02-28T05:14:05;5.20;;;3.60;;
4323;SDS011;2175;51.018;6.994;2023-02-28T05:16:34;7.28;;;3.58;;
4323;SDS011;2175;51.018;6.994;2023-02-28T05:18:59;5.37;;;2.93;;
4323;SDS011;2175;51.018;6.994;2023-02-28T05:23:59;4.13;;;3.28;;
4323;SDS011;2175;51.018;6.994;2023-02-28T05:26:26;5.43;;;3.72;;
4323;SDS011;2175;51.018;6.994;2023-02-28T05:28:53;6.00;;;3.60;;
4323;SDS011;2175;51.018;6.994;2023-02-28T05:31:19;7.30;;;3.77;;
4323;SDS011;2175;51.018;6.994;2023-02-28T05:33:44;4.93;;;3.63;;
4323;SDS011;2175;51.018;6.994;2023-02-28T05:36:10;5.13;;;3.37;;
4323;SDS011;2175;51.018;6.994;2023-02-28T05:38:36;5.27;;;3.57;;
4323;SDS011;2175;51.018;6.994;2023-02-28T05:41:04;6.83;;;3.50;;
4323;SDS011;2175;51.018;6.994;2023-02-28T05:43:34;6.20;;;4.13;;
4323;SDS011;2175;51.018;6.994;2023-02-28T05:46:02;7.73;;;3.73;;
4323;SDS011;2175;51.018;6.994;2023-02-28T05:48:28;5.60;;;3.63;;
4323;SDS011;2175;51.018;6.994;2023-02-28T05:50:54;4.77;;;3.40;;
4323;SDS011;2175;51.018;6.994;2023-02-28T05:53:21;5.05;;;3.15;;
4323;SDS011;2175;51.018;6.994;2023-02-28T05:55:47;6.30;;;3.47;;
4323;SDS011;2175;51.018;6.994;2023-02-28T05:58:13;6.00;;;3.13;;
4323;SDS011;2175;51.018;6.994;2023-02-28T06:00:38;5.30;;;3.30;;
4323;SDS011;2175;51.018;6.994;2023-02-28T06:03:04;4.50;;;3.23;;
4323;SDS011;2175;51.018;6.994;2023-02-28T06:05:29;6.63;;;3.57;;
4323;SDS011;2175;51.018;6.994;2023-02-28T06:07:55;9.07;;;3.97;;
4323;SDS011;2175;51.018;6.994;2023-02-28T06:10:21;6.50;;;3.83;;
4323;SDS011;2175;51.018;6.994;2023-02-28T06:12:46;4.70;;;3.07;;
4323;SDS011;2175;51.018;6.994;2023-02-28T06:15:12;6.20;;;3.50;;
4323;SDS011;2175;51.018;6.994;2023-02-28T06:17:39;5.53;;;3.85;;
4323;SDS011;2175;51.018;6.994;2023-02-28T06:20:06;5.57;;;3.50;;
4323;SDS011;2175;51.018;6.994;2023-02-28T06:22:33;3.80;;;3.10;;
4323;SDS011;2175;51.018;6.994;2023-02-28T06:25:00;4.47;;;3.45;;
4323;SDS011;2175;51.018;6.994;2023-02-28T06:27:26;10.83;;;3.63;;
4323;SDS011;2175;51.018;6.994;2023-02-28T06:29:53;4.83;;;3.60;;
4323;SDS011;2175;51.018;6.994;2023-02-28T06:32:20;6.72;;;3.47;;
4323;SDS011;2175;51.018;6.994;2023-02-28T06:34:46;5.80;;;3.77;;
4323;SDS011;2175;51.018;6.994;2023-02-28T06:37:11;4.77;;;3.13;;
4323;SDS011;2175;51.018;6.994;2023-02-28T06:39:37;4.53;;;3.37;;
4323;SDS011;2175;51.018;6.994;2023-02-28T06:42:02;6.80;;;3.27;;
4323;SDS011;2175;51.018;6.994;2023-02-28T06:44:28;4.85;;;3.20;;
4323;SDS011;2175;51.018;6.994;2023-02-28T06:47:00;4.70;;;3.40;;
4323;SDS011;2175;51.018;6.994;2023-02-28T06:49:28;7.38;;;3.55;;
4323;SDS011;2175;51.018;6.994;2023-02-28T06:51:54;4.90;;;3.72;;
4323;SDS011;2175;51.018;6.994;2023-02-28T06:54:20;6.63;;;3.53;;
4323;SDS011;2175;51.018;6.994;2023-02-28T06:56:45;9.83;;;3.93;;
4323;SDS011;2175;51.018;6.994;2023-02-28T06:59:11;6.28;;;3.45;;
4323;SDS011;2175;51.018;6.994;2023-02-28T07:01:37;5.87;;;3.50;;
4323;SDS011;2175;51.018;6.994;2023-02-28T07:04:04;7.63;;;3.20;;
4323;SDS011;2175;51.018;6.994;2023-02-28T07:06:30;6.00;;;3.42;;
4323;SDS011;2175;51.018;6.994;2023-02-28T07:08:56;5.90;;;3.60;;
4323;SDS011;2175;51.018;6.994;2023-02-28T07:11:23;8.00;;;3.40;;
4323;SDS011;2175;51.018;6.994;2023-02-28T07:13:51;6.38;;;3.85;;
4323;SDS011;2175;51.018;6.994;2023-02-28T07:16:17;5.55;;;3.30;;
4323;SDS011;2175;51.018;6.994;2023-02-28T07:18:43;4.47;;;3.03;;
4323;SDS011;2175;51.018;6.994;2023-02-28T07:21:09;7.00;;;3.53;;
4323;SDS011;2175;51.018;6.994;2023-02-28T07:23:36;10.10;;;3.60;;
4323;SDS011;2175;51.018;6.994;2023-02-28T07:26:06;5.50;;;3.22;;
4323;SDS011;2175;51.018;6.994;2023-02-28T07:28:36;7.40;;;3.13;;
4323;SDS011;2175;51.018;6.994;2023-02-28T07:31:06;3.47;;;3.00;;
4323;SDS011;2175;51.018;6.994;2023-02-28T07:33:33;11.57;;;3.60;;
4323;SDS011;2175;51.018;6.994;2023-02-28T07:36:06;4.80;;;3.20;;
4323;SDS011;2175;51.018;6.994;2023-02-28T07:38:40;4.60;;;3.15;;
4323;SDS011;2175;51.018;6.994;2023-02-28T07:41:11;5.93;;;3.50;;
4323;SDS011;2175;51.018;6.994;2023-02-28T07:43:37;5.53;;;3.43;;
4323;SDS011;2175;51.018;6.994;2023-02-28T07:46:04;6.00;;;3.10;;
4323;SDS011;2175;51.018;6.994;2023-02-28T07:48:31;4.72;;;2.80;;
4323;SDS011;2175;51.018;6.994;2023-02-28T07:50:57;7.27;;;3.40;;
4323;SDS011;2175;51.018;6.994;2023-02-28T07:53:24;5.40;;;3.13;;
4323;SDS011;2175;51.018;6.994;2023-02-28T07:55:50;9.18;;;3.20;;
4323;SDS011;2175;51.018;6.994;2023-02-28T07:58:16;4.30;;;3.03;;
4323;SDS011;2175;51.018;6.994;2023-02-28T08:00:41;5.30;;;2.93;;
4323;SDS011;2175;51.018;6.994;2023-02-28T08:03:09;5.40;;;2.83;;
4323;SDS011;2175;51.018;6.994;2023-02-28T08:05:40;7.30;;;3.08;;
4323;SDS011;2175;51.018;6.994;2023-02-28T08:08:07;3.25;;;2.65;;
4323;SDS011;2175;51.018;6.994;2023-02-28T08:10:32;4.88;;;3.00;;
4323;SDS011;2175;51.018;6.994;2023-02-28T08:12:58;3.40;;;2.70;;
4323;SDS011;2175;51.018;6.994;2023-02-28T08:15:24;6.00;;;3.10;;
4323;SDS011;2175;51.018;6.994;2023-02-28T08:17:49;4.97;;;2.80;;
4323;SDS011;2175;51.018;6.994;2023-02-28T08:20:15;3.40;;;2.53;;
4323;SDS011;2175;51.018;6.994;2023-02-28T08:22:40;4.00;;;2.60;;
4323;SDS011;2175;51.018;6.994;2023-02-28T08:25:06;4.03;;;2.73;;
4323;SDS011;2175;51.018;6.994;2023-02-28T08:27:33;4.32;;;2.60;;
4323;SDS011;2175;51.018;6.994;2023-02-28T08:29:58;6.50;;;2.43;;
4323;SDS011;2175;51.018;6.994;2023-02-28T08:32:24;4.73;;;3.07;;
4323;SDS011;2175;51.018;6.994;2023-02-28T08:34:49;4.10;;;2.73;;
4323;SDS011;2175;51.018;6.994;2023-02-28T08:37:16;4.30;;;2.80;;
4323;SDS011;2175;51.018;6.994;2023-02-28T08:39:41;3.60;;;2.30;;
4323;SDS011;2175;51.018;6.994;2023-02-28T08:42:07;4.23;;;2.83;;
4323;SDS011;2175;51.018;6.994;2023-02-28T08:44:32;5.87;;;2.97;;
4323;SDS011;2175;51.018;6.994;2023-02-28T08:46:58;7.70;;;2.53;;
4323;SDS011;2175;51.018;6.994;2023-02-28T08:49:24;5.80;;;3.00;;
4323;SDS011;2175;51.018;6.994;2023-02-28T08:51:49;5.30;;;2.60;;
4323;SDS011;2175;51.018;6.994;2023-02-28T08:54:15;3.67;;;2.43;;
4323;SDS011;2175;51.018;6.994;2023-02-28T08:56:45;4.67;;;2.40;;
4323;SDS011;2175;51.018;6.994;2023-02-28T08:59:11;4.60;;;2.50;;
4323;SDS011;2175;51.018;6.994;2023-02-28T09:01:37;4.27;;;2.10;;
4323;SDS011;2175;51.018;6.994;2023-02-28T09:04:03;3.63;;;2.23;;
4323;SDS011;2175;51.018;6.994;2023-02-28T09:06:29;3.50;;;2.07;;
4323;SDS011;2175;51.018;6.994;2023-02-28T09:08:58;4.00;;;2.57;;
4323;SDS011;2175;51.018;6.994;2023-02-28T09:11:27;2.67;;;1.90;;
4323;SDS011;2175;51.018;6.994;2023-02-28T09:13:53;4.67;;;2.20;;
4323;SDS011;2175;51.018;6.994;2023-02-28T09:16:20;5.57;;;2.60;;
4323;SDS011;2175;51.018;6.994;2023-02-28T09:18:47;3.23;;;2.40;;
4323;SDS011;2175;51.018;6.994;2023-02-28T09:21:13;3.90;;;2.30;;
4323;SDS011;2175;51.018;6.994;2023-02-28T09:23:41;7.43;;;2.20;;
4323;SDS011;2175;51.018;6.994;2023-02-28T09:26:08;3.50;;;2.30;;
4323;SDS011;2175;51.018;6.994;2023-02-28T09:28:37;3.60;;;2.53;;
4323;SDS011;2175;51.018;6.994;2023-02-28T09:31:03;3.53;;;2.33;;
4323;SDS011;2175;51.018;6.994;2023-02-28T09:33:29;7.40;;;2.63;;
4323;SDS011;2175;51.018;6.994;2023-02-28T09:35:59;3.50;;;2.17;;
4323;SDS011;2175;51.018;6.994;2023-02-28T09:38:27;3.17;;;2.23;;
4323;SDS011;2175;51.018;6.994;2023-02-28T09:40:54;6.93;;;2.93;;
4323;SDS011;2175;51.018;6.994;2023-02-28T09:43:27;4.03;;;2.43;;
4323;SDS011;2175;51.018;6.994;2023-02-28T09:46:06;3.70;;;2.07;;
4323;SDS011;2175;51.018;6.994;2023-02-28T09:48:51;4.40;;;2.77;;
4323;SDS011;2175;51.018;6.994;2023-02-28T09:51:28;3.73;;;2.40;;
4323;SDS011;2175;51.018;6.994;2023-02-28T09:54:01;3.50;;;2.80;;
4323;SDS011;2175;51.018;6.994;2023-02-28T10:01:33;2.93;;;1.90;;
4323;SDS011;2175;51.018;6.994;2023-02-28T10:04:03;2.67;;;1.80;;
4323;SDS011;2175;51.018;6.994;2023-02-28T10:06:46;8.30;;;2.57;;
4323;SDS011;2175;51.018;6.994;2023-02-28T10:09:19;3.50;;;2.27;;
4323;SDS011;2175;51.018;6.994;2023-02-28T10:12:00;4.37;;;2.00;;
4323;SDS011;2175;51.018;6.994;2023-02-28T10:14:30;2.60;;;1.93;;
4323;SDS011;2175;51.018;6.994;2023-02-28T10:17:03;3.23;;;2.20;;
4323;SDS011;2175;51.018;6.994;2023-02-28T10:22:24;3.60;;;2.07;;
4323;SDS011;2175;51.018;6.994;2023-02-28T10:24:51;5.27;;;2.43;;
4323;SDS011;2175;51.018;6.994;2023-02-28T10:27:20;6.80;;;2.57;;
4323;SDS011;2175;51.018;6.994;2023-02-28T10:29:50;5.37;;;2.70;;
4323;SDS011;2175;51.018;6.994;2023-02-28T10:32:22;5.27;;;2.13;;
4323;SDS011;2175;51.018;6.994;2023-02-28T10:34:51;3.90;;;2.70;;
4323;SDS011;2175;51.018;6.994;2023-02-28T10:37:22;3.30;;;2.27;;
4323;SDS011;2175;51.018;6.994;2023-02-28T10:39:48;4.60;;;2.70;;
4323;SDS011;2175;51.018;6.994;2023-02-28T10:42:29;4.30;;;2.80;;
4323;SDS011;2175;51.018;6.994;2023-02-28T10:48:02;3.33;;;2.33;;
4323;SDS011;2175;51.018;6.994;2023-02-28T10:56:23;6.60;;;2.40;;
4323;SDS011;2175;51.018;6.994;2023-02-28T11:01:44;4.53;;;2.83;;
4323;SDS011;2175;51.018;6.994;2023-02-28T11:07:02;3.87;;;2.30;;
4323;SDS011;2175;51.018;6.994;2023-02-28T11:11:58;4.13;;;2.40;;
4323;SDS011;2175;51.018;6.994;2023-02-28T11:14:25;6.53;;;2.90;;
4323;SDS011;2175;51.018;6.994;2023-02-28T11:17:11;3.10;;;2.43;;
4323;SDS011;2175;51.018;6.994;2023-02-28T11:19:45;4.50;;;2.90;;
4323;SDS011;2175;51.018;6.994;2023-02-28T11:22:22;4.10;;;3.03;;
4323;SDS011;2175;51.018;6.994;2023-02-28T11:24:51;3.60;;;2.10;;
4323;SDS011;2175;51.018;6.994;2023-02-28T11:29:54;4.90;;;3.00;;
4323;SDS011;2175;51.018;6.994;2023-02-28T11:32:21;3.70;;;2.73;;
4323;SDS011;2175;51.018;6.994;2023-02-28T11:37:37;4.03;;;2.90;;
4323;SDS011;2175;51.018;6.994;2023-02-28T11:40:28;4.83;;;3.10;;
4323;SDS011;2175;51.018;6.994;2023-02-28T11:51:11;4.17;;;3.17;;
4323;SDS011;2175;51.018;6.994;2023-02-28T11:56:51;4.40;;;3.10;;
4323;SDS011;2175;51.018;6.994;2023-02-28T11:59:47;4.40;;;3.00;;
4323;SDS011;2175;51.018;6.994;2023-02-28T12:09:01;4.83;;;3.20;;
4323;SDS011;2175;51.018;6.994;2023-02-28T12:13:48;5.60;;;3.10;;
4323;SDS011;2175;51.018;6.994;2023-02-28T12:16:40;3.90;;;3.23;;
4323;SDS011;2175;51.018;6.994;2023-02-28T12:25:41;6.80;;;3.40;;
4323;SDS011;2175;51.018;6.994;2023-02-28T12:28:06;5.63;;;3.97;;
4323;SDS011;2175;51.018;6.994;2023-02-28T12:30:35;6.00;;;2.93;;
4323;SDS011;2175;51.018;6.994;2023-02-28T12:33:08;4.53;;;3.30;;
4323;SDS011;2175;51.018;6.994;2023-02-28T12:35:59;4.17;;;3.30;;
4323;SDS011;2175;51.018;6.994;2023-02-28T12:41:01;5.27;;;3.30;;
4323;SDS011;2175;51.018;6.994;2023-02-28T12:43:34;6.33;;;3.53;;
4323;SDS011;2175;51.018;6.994;2023-02-28T12:46:07;4.90;;;3.20;;
4323;SDS011;2175;51.018;6.994;2023-02-28T12:48:45;5.77;;;3.13;;
4323;SDS011;2175;51.018;6.994;2023-02-28T12:51:21;3.73;;;2.90;;
4323;SDS011;2175;51.018;6.994;2023-02-28T12:56:33;5.60;;;3.20;;
4323;SDS011;2175;51.018;6.994;2023-02-28T13:17:40;7.43;;;3.10;;
4323;SDS011;2175;51.018;6.994;2023-02-28T13:33:20;5.20;;;2.80;;
4323;SDS011;2175;51.018;6.994;2023-02-28T13:38:51;5.80;;;3.57;;
4323;SDS011;2175;51.018;6.994;2023-02-28T13:44:03;3.47;;;2.70;;
4323;SDS011;2175;51.018;6.994;2023-02-28T13:52:02;5.57;;;3.23;;
4323;SDS011;2175;51.018;6.994;2023-02-28T13:54:53;4.73;;;2.90;;
4323;SDS011;2175;51.018;6.994;2023-02-28T14:00:40;5.87;;;3.63;;
4323;SDS011;2175;51.018;6.994;2023-02-28T14:09:17;5.80;;;3.60;;
4323;SDS011;2175;51.018;6.994;2023-02-28T14:11:38;5.27;;;3.37;;
4323;SDS011;2175;51.018;6.994;2023-02-28T14:14:06;6.20;;;3.60;;
4323;SDS011;2175;51.018;6.994;2023-02-28T14:16:40;6.37;;;4.07;;
4323;SDS011;2175;51.018;6.994;2023-02-28T14:19:13;4.70;;;3.73;;
4323;SDS011;2175;51.018;6.994;2023-02-28T14:27:27;5.27;;;3.47;;
4323;SDS011;2175;51.018;6.994;2023-02-28T14:38:21;4.97;;;3.70;;
4323;SDS011;2175;51.018;6.994;2023-02-28T14:40:53;6.40;;;4.23;;
4323;SDS011;2175;51.018;6.994;2023-02-28T14:43:22;5.93;;;3.87;;
4323;SDS011;2175;51.018;6.994;2023-02-28T14:45:51;5.60;;;3.73;;
4323;SDS011;2175;51.018;6.994;2023-02-28T14:48:20;5.20;;;3.50;;
4323;SDS011;2175;51.018;6.994;2023-02-28T14:50:57;6.47;;;4.07;;
4323;SDS011;2175;51.018;6.994;2023-02-28T14:53:35;5.13;;;3.50;;
4323;SDS011;2175;51.018;6.994;2023-02-28T14:56:02;5.70;;;3.60;;
4323;SDS011;2175;51.018;6.994;2023-02-28T14:58:29;6.33;;;3.93;;
4323;SDS011;2175;51.018;6.994;2023-02-28T15:00:58;5.87;;;3.53;;
4323;SDS011;2175;51.018;6.994;2023-02-28T15:03:35;5.73;;;4.10;;
4323;SDS011;2175;51.018;6.994;2023-02-28T15:06:11;5.20;;;3.57;;
4323;SDS011;2175;51.018;6.994;2023-02-28T15:08:42;5.70;;;3.30;;
4323;SDS011;2175;51.018;6.994;2023-02-28T15:11:09;4.30;;;3.13;;
4323;SDS011;2175;51.018;6.994;2023-02-28T15:13:47;7.27;;;3.43;;
4323;SDS011;2175;51.018;6.994;2023-02-28T15:16:19;5.60;;;3.40;;
4323;SDS011;2175;51.018;6.994;2023-02-28T15:18:50;5.30;;;3.20;;
4323;SDS011;2175;51.018;6.994;2023-02-28T15:23:59;5.47;;;3.43;;
4323;SDS011;2175;51.018;6.994;2023-02-28T15:26:26;4.33;;;3.40;;
4323;SDS011;2175;51.018;6.994;2023-02-28T15:29:04;5.80;;;3.80;;
4323;SDS011;2175;51.018;6.994;2023-02-28T15:31:32;5.17;;;3.20;;
4323;SDS011;2175;51.018;6.994;2023-02-28T15:34:04;3.97;;;3.23;;
4323;SDS011;2175;51.018;6.994;2023-02-28T15:36:31;5.17;;;3.27;;
4323;SDS011;2175;51.018;6.994;2023-02-28T15:39:02;5.00;;;3.50;;
4323;SDS011;2175;51.018;6.994;2023-02-28T15:41:43;7.40;;;3.90;;
4323;SDS011;2175;51.018;6.994;2023-02-28T15:44:27;6.00;;;4.00;;
4323;SDS011;2175;51.018;6.994;2023-02-28T15:49:23;5.53;;;3.70;;
4323;SDS011;2175;51.018;6.994;2023-02-28T15:51:50;6.97;;;3.50;;
4323;SDS011;2175;51.018;6.994;2023-02-28T15:54:19;4.80;;;3.27;;
4323;SDS011;2175;51.018;6.994;2023-02-28T15:56:52;5.30;;;3.30;;
4323;SDS011;2175;51.018;6.994;2023-02-28T15:59:25;6.90;;;3.50;;
4323;SDS011;2175;51.018;6.994;2023-02-28T16:02:13;5.17;;;3.33;;
4323;SDS011;2175;51.018;6.994;2023-02-28T16:04:56;7.07;;;3.80;;
4323;SDS011;2175;51.018;6.994;2023-02-28T16:07:23;5.37;;;3.10;;
4323;SDS011;2175;51.018;6.994;2023-02-28T16:09:49;5.30;;;3.67;;
4323;SDS011;2175;51.018;6.994;2023-02-28T16:12:15;6.10;;;3.10;;
4323;SDS011;2175;51.018;6.994;2023-02-28T16:14:41;4.80;;;3.40;;
4323;SDS011;2175;51.018;6.994;2023-02-28T16:17:10;15.73;;;3.30;;
4323;SDS011;2175;51.018;6.994;2023-02-28T16:19:46;5.27;;;3.50;;
4323;SDS011;2175;51.018;6.994;2023-02-28T16:22:12;9.13;;;3.30;;
4323;SDS011;2175;51.018;6.994;2023-02-28T16:24:38;3.57;;;2.80;;
4323;SDS011;2175;51.018;6.994;2023-02-28T16:27:05;6.13;;;3.50;;
4323;SDS011;2175;51.018;6.994;2023-02-28T16:29:32;5.83;;;3.67;;
4323;SDS011;2175;51.018;6.994;2023-02-28T16:32:00;6.00;;;3.40;;
4323;SDS011;2175;51.018;6.994;2023-02-28T16:34:27;5.40;;;3.63;;
4323;SDS011;2175;51.018;6.994;2023-02-28T16:36:53;5.13;;;3.40;;
4323;SDS011;2175;51.018;6.994;2023-02-28T16:39:19;5.67;;;3.67;;
4323;SDS011;2175;51.018;6.994;2023-02-28T16:41:48;6.17;;;3.37;;
4323;SDS011;2175;51.018;6.994;2023-02-28T16:44:27;8.50;;;4.10;;
4323;SDS011;2175;51.018;6.994;2023-02-28T16:46:54;5.60;;;4.10;;
4323;SDS011;2175;51.018;6.994;2023-02-28T16:49:20;5.20;;;3.67;;
4323;SDS011;2175;51.018;6.994;2023-02-28T16:51:46;7.17;;;3.63;;
4323;SDS011;2175;51.018;6.994;2023-02-28T16:54:11;5.43;;;3.63;;
4323;SDS011;2175;51.018;6.994;2023-02-28T16:56:38;5.83;;;3.63;;
4323;SDS011;2175;51.018;6.994;2023-02-28T16:59:08;5.90;;;3.60;;
4323;SDS011;2175;51.018;6.994;2023-02-28T17:01:37;5.17;;;3.57;;
4323;SDS011;2175;51.018;6.994;2023-02-28T17:04:03;7.50;;;3.67;;
4323;SDS011;2175;51.018;6.994;2023-02-28T17:06:29;5.53;;;3.50;;
4323;SDS011;2175;51.018;6.994;2023-02-28T17:08:56;6.17;;;3.57;;
4323;SDS011;2175;51.018;6.994;2023-02-28T17:11:24;4.90;;;3.33;;
4323;SDS011;2175;51.018;6.994;2023-02-28T17:13:50;4.60;;;3.27;;
4323;SDS011;2175;51.018;6.994;2023-02-28T17:16:29;6.03;;;4.00;;
4323;SDS011;2175;51.018;6.994;2023-02-28T17:18:59;5.97;;;3.90;;
4323;SDS011;2175;51.018;6.994;2023-02-28T17:21:26;4.80;;;3.57;;
4323;SDS011;2175;51.018;6.994;2023-02-28T17:23:53;5.00;;;3.37;;
4323;SDS011;2175;51.018;6.994;2023-02-28T17:26:19;10.73;;;4.33;;
4323;SDS011;2175;51.018;6.994;2023-02-28T17:28:46;7.30;;;3.80;;
4323;SDS011;2175;51.018;6.994;2023-02-28T17:31:13;5.40;;;3.80;;
4323;SDS011;2175;51.018;6.994;2023-02-28T17:33:39;7.43;;;4.50;;
4323;SDS011;2175;51.018;6.994;2023-02-28T17:36:05;6.03;;;4.43;;
4323;SDS011;2175;51.018;6.994;2023-02-28T17:38:31;8.47;;;4.77;;
4323;SDS011;2175;51.018;6.994;2023-02-28T17:40:57;9.20;;;5.17;;
4323;SDS011;2175;51.018;6.994;2023-02-28T17:43:23;6.77;;;4.30;;
4323;SDS011;2175;51.018;6.994;2023-02-28T17:45:50;5.83;;;4.33;;
4323;SDS011;2175;51.018;6.994;2023-02-28T17:48:16;5.00;;;3.97;;
4323;SDS011;2175;51.018;6.994;2023-02-28T17:50:41;10.60;;;4.63;;
4323;SDS011;2175;51.018;6.994;2023-02-28T17:53:07;12.10;;;5.30;;
4323;SDS011;2175;51.018;6.994;2023-02-28T17:55:34;7.40;;;4.77;;
4323;SDS011;2175;51.018;6.994;2023-02-28T17:58:00;6.13;;;4.67;;
4323;SDS011;2175;51.018;6.994;2023-02-28T18:00:26;6.47;;;4.60;;
4323;SDS011;2175;51.018;6.994;2023-02-28T18:02:51;6.70;;;5.00;;
4323;SDS011;2175;51.018;6.994;2023-02-28T18:05:17;6.33;;;4.70;;
4323;SDS011;2175;51.018;6.994;2023-02-28T18:07:43;9.33;;;5.07;;
4323;SDS011;2175;51.018;6.994;2023-02-28T18:10:26;10.50;;;5.60;;
4323;SDS011;2175;51.018;6.994;2023-02-28T18:12:52;7.93;;;5.30;;
4323;SDS011;2175;51.018;6.994;2023-02-28T18:15:19;7.50;;;5.27;;
4323;SDS011;2175;51.018;6.994;2023-02-28T18:17:46;8.33;;;5.50;;
4323;SDS011;2175;51.018;6.994;2023-02-28T18:20:12;11.73;;;5.90;;